createdAt,value
2019-03-19T00:00:01.078Z,93.83
2019-03-19T00:05:01.378Z,93.77
2019-03-19T00:10:01.078Z,93.76
2019-03-19T00:15:01.065Z,93.79
2019-03-19T00:20:01.424Z,93.90
2019-03-19T00:25:01.102Z,94.02
2019-03-19T00:30:01.438Z,93.99
2019-03-19T00:35:01.072Z,93.96
2019-03-19T00:40:01.458Z,94.01
2019-03-19T00:45:01.074Z,94.06
2019-03-19T00:50:01.451Z,94.03
2019-03-19T00:55:01.097Z,94.05
2019-03-19T01:00:01.111Z,94.05
2019-03-19T01:05:01.096Z,94.07
2019-03-19T01:10:01.151Z,94.08
2019-03-19T01:15:01.113Z,94.05
2019-03-19T01:20:01.105Z,94.13
2019-03-19T01:25:01.107Z,94.15
2019-03-19T01:30:19.267Z,94.21
2019-03-19T01:35:01.064Z,94.26
2019-03-19T01:40:01.104Z,94.34
2019-03-19T01:45:01.472Z,94.21
2019-03-19T01:50:01.129Z,94.23
2019-03-19T01:55:01.110Z,94.29
2019-03-19T02:00:01.448Z,94.33
2019-03-19T02:05:01.100Z,94.32
2019-03-19T02:10:01.515Z,94.32
2019-03-19T02:15:01.496Z,94.47
2019-03-19T02:20:01.084Z,94.36
2019-03-19T02:25:01.085Z,94.47
2019-03-19T02:30:01.098Z,94.42
2019-03-19T02:35:01.095Z,94.41
2019-03-19T02:40:01.073Z,94.42
2019-03-19T02:45:01.108Z,94.44
2019-03-19T02:50:01.096Z,94.47
2019-03-19T02:55:01.076Z,94.45
2019-03-19T03:00:01.125Z,94.52
2019-03-19T03:05:01.121Z,94.54
2019-03-19T03:10:01.096Z,94.52
2019-03-19T03:15:01.109Z,94.50
2019-03-19T03:20:01.528Z,94.56
2019-03-19T03:25:01.092Z,94.55
2019-03-19T03:30:01.365Z,94.56
2019-03-19T03:35:01.657Z,94.59
2019-03-19T03:40:01.055Z,94.55
2019-03-19T03:45:01.093Z,94.62
2019-03-19T03:50:01.478Z,94.49
2019-03-19T03:55:01.095Z,94.65
2019-03-19T04:00:01.132Z,94.60
2019-03-19T04:05:01.591Z,94.68
2019-03-19T04:10:01.109Z,94.62
2019-03-19T04:15:01.104Z,94.74
2019-03-19T04:20:01.482Z,94.70
2019-03-19T04:25:01.099Z,94.62
2019-03-19T04:30:01.085Z,94.73
2019-03-19T04:35:01.103Z,94.70
2019-03-19T04:40:01.097Z,94.75
2019-03-19T04:45:01.085Z,94.79
2019-03-19T04:50:01.435Z,94.69
2019-03-19T04:55:01.100Z,94.77
2019-03-19T05:00:01.118Z,94.65
2019-03-19T05:05:10.365Z,94.82
2019-03-19T05:10:01.094Z,94.85
2019-03-19T05:15:01.173Z,94.89
2019-03-19T05:20:01.549Z,94.91
2019-03-19T05:25:01.231Z,94.82
2019-03-19T05:30:01.408Z,94.84
2019-03-19T05:35:01.197Z,94.93
2019-03-19T05:40:01.103Z,94.88
2019-03-19T05:45:01.354Z,94.95
2019-03-19T05:50:01.557Z,94.90
2019-03-19T05:55:01.084Z,94.91
2019-03-19T06:00:01.495Z,94.89
2019-03-19T06:05:01.086Z,94.91
2019-03-19T06:10:01.119Z,94.89
2019-03-19T06:15:01.106Z,94.93
2019-03-19T06:20:01.576Z,94.86
2019-03-19T06:25:01.107Z,94.82
2019-03-19T06:30:01.132Z,94.92
2019-03-19T06:35:01.704Z,94.91
2019-03-19T06:40:01.092Z,94.89
2019-03-19T06:45:01.098Z,94.79
2019-03-19T06:50:01.945Z,94.85
2019-03-19T06:55:01.097Z,94.86
2019-03-19T07:00:01.606Z,94.20
2019-03-19T07:05:01.458Z,94.14
2019-03-19T07:10:01.064Z,93.89
2019-03-19T07:15:01.107Z,93.48
2019-03-19T07:20:01.116Z,92.74
2019-03-19T07:25:01.598Z,90.80
2019-03-19T07:30:01.083Z,87.76
2019-03-19T07:35:01.070Z,86.71
2019-03-19T07:40:01.078Z,83.55
2019-03-19T07:45:01.091Z,83.00
2019-03-19T07:50:01.104Z,83.28
2019-03-19T07:55:01.097Z,81.73
2019-03-19T08:00:01.127Z,78.92
2019-03-19T08:05:01.396Z,77.91
2019-03-19T08:10:01.135Z,76.22
2019-03-19T08:15:01.466Z,75.29
2019-03-19T08:20:01.086Z,74.08
2019-03-19T08:25:01.072Z,71.99
2019-03-19T08:30:01.114Z,68.56
2019-03-19T08:35:01.086Z,68.76
2019-03-19T08:40:01.108Z,70.54
2019-03-19T08:45:01.096Z,71.03
2019-03-19T08:50:14.654Z,68.60
2019-03-19T08:55:01.101Z,66.39
2019-03-19T09:00:01.134Z,66.93
2019-03-19T09:05:03.096Z,63.54
2019-03-19T09:10:01.106Z,57.93
2019-03-19T09:15:01.407Z,54.38
2019-03-19T09:20:01.110Z,54.76
2019-03-19T09:25:01.124Z,54.28
2019-03-19T09:30:01.483Z,53.04
2019-03-19T09:35:01.551Z,51.58
2019-03-19T09:40:01.143Z,52.59
2019-03-19T09:45:01.073Z,50.54
2019-03-19T09:50:01.062Z,51.34
2019-03-19T09:55:01.094Z,49.27
2019-03-19T10:00:01.114Z,51.08
2019-03-19T10:05:01.156Z,54.36
2019-03-19T10:10:01.554Z,52.90
2019-03-19T10:15:01.548Z,51.52
2019-03-19T10:20:01.117Z,51.20
2019-03-19T10:25:01.152Z,51.17
2019-03-19T10:30:01.094Z,50.06
2019-03-19T10:35:01.077Z,49.79
2019-03-19T10:40:02.153Z,49.68
2019-03-19T10:45:01.142Z,50.81
2019-03-19T10:50:01.119Z,52.11
2019-03-19T10:55:02.721Z,49.09
2019-03-19T11:00:01.131Z,49.28
2019-03-19T11:05:01.146Z,49.52
2019-03-19T11:10:01.103Z,49.28
2019-03-19T11:15:01.099Z,49.61
2019-03-19T11:20:01.407Z,48.02
2019-03-19T11:25:01.136Z,48.83
2019-03-19T11:30:01.238Z,47.29
2019-03-19T11:35:01.059Z,46.46
2019-03-19T11:40:01.119Z,49.27
2019-03-19T11:45:01.121Z,54.23
2019-03-19T11:50:01.161Z,54.76
2019-03-19T11:55:01.138Z,55.36
2019-03-19T12:00:10.815Z,54.92
2019-03-19T12:05:01.085Z,54.86
2019-03-19T12:10:01.122Z,56.39
2019-03-19T12:15:01.087Z,59.84
2019-03-19T12:20:01.092Z,63.41
2019-03-19T12:25:01.129Z,61.01
2019-03-19T12:30:01.167Z,57.52
2019-03-19T12:35:01.857Z,60.89
2019-03-19T12:40:01.149Z,60.56
2019-03-19T12:45:01.135Z,59.38
2019-03-19T12:50:01.123Z,57.28
2019-03-19T12:55:01.102Z,53.23
2019-03-19T13:00:01.310Z,54.00
2019-03-19T13:05:01.098Z,53.47
2019-03-19T13:10:01.341Z,55.03
2019-03-19T13:15:01.091Z,54.46
2019-03-19T13:25:01.097Z,55.61
2019-03-19T13:45:01.092Z,53.38
2019-03-19T14:10:01.152Z,52.65
2019-03-19T14:25:01.084Z,62.77
2019-03-19T14:35:01.102Z,55.04
2019-03-19T14:55:01.109Z,54.84
2019-03-19T15:05:01.056Z,54.40
2019-03-19T15:20:01.498Z,54.61
2019-03-19T15:50:01.080Z,59.91
2019-03-19T17:30:01.096Z,80.21
2019-03-19T18:40:01.031Z,83.92
2019-03-19T21:35:01.100Z,88.54
